Tofteviken — C6ZO5 — position and weather

sailwx.info

Track history (hours):
 
Tides and Currents Weather Stations Pressure Air Temp Water Temp Dewpoint Dewpoint Depression Visibility Wind Speed Wind Dir Waves Ship Positions

Tofteviken

Last reported at 2018-Jul-22 03:00 UTC. Time now 2018-Jul-22 03:13 UTC.
Position N 27°20' W 095°57'.

Length 249 m; draft 8.2 m.

Type: Tanker. MMSI: 311061400.

Date/timePositionNaut miles runAvg speedWind from/ knotsBaromVisibWave heightAir tempDewpointWater temp
2018-Jul-22 03:00N 27°20' W 095°57'712.5
2018-Jul-22 02:27N 27°17' W 095°50'612.5
2018-Jul-22 01:57N 27°15' W 095°43'612.4
2018-Jul-22 01:30N 27°13' W 095°37'13 8.5
2018-Jul-21 23:55N 27°07' W 095°24'612.8
2018-Jul-21 23:26N 27°05' W 095°17'4012.4
2018-Jul-21 20:10N 26°49' W 094°35'212.0
2018-Jul-21 19:59N 26°48' W 094°33'712.1
2018-Jul-21 19:26N 26°46' W 094°26'512.2
2018-Jul-21 19:00N 26°44' W 094°21'612.1
2018-Jul-21 18:29N 26°41' W 094°14'  
Track history (hours):
 
Tides and Currents Weather Stations Pressure Air Temp Water Temp Dewpoint Dewpoint Depression Visibility Wind Speed Wind Dir Waves Ship Positions

Tofteviken

Last reported at 2018-Jul-22 03:00 UTC. Time now 2018-Jul-22 03:13 UTC.
Position N 27°20' W 095°57'.

Length 249 m; draft 8.2 m.

Type: Tanker. MMSI: 311061400.

Date/timePositionNaut miles runAvg speedWind from/ knotsBaromVisibWave heightAir tempDewpointWater temp
2018-Jul-22 03:00N 27°20' W 095°57'712.5
2018-Jul-22 02:27N 27°17' W 095°50'612.5
2018-Jul-22 01:57N 27°15' W 095°43'612.4
2018-Jul-22 01:30N 27°13' W 095°37'13 8.5
2018-Jul-21 23:55N 27°07' W 095°24'612.8
2018-Jul-21 23:26N 27°05' W 095°17'4012.4
2018-Jul-21 20:10N 26°49' W 094°35'212.0
2018-Jul-21 19:59N 26°48' W 094°33'712.1
2018-Jul-21 19:26N 26°46' W 094°26'512.2
2018-Jul-21 19:00N 26°44' W 094°21'612.1
2018-Jul-21 18:29N 26°41' W 094°14'  

Dump ship's entire track history